createdAt,value
2023-01-27T00:00:37.718Z,3.50
2023-01-27T00:03:04.873Z,3.45
2023-01-27T00:05:32.049Z,3.28
2023-01-27T00:08:00.439Z,3.40
2023-01-27T00:10:27.653Z,3.55
2023-01-27T00:13:13.787Z,3.70
2023-01-27T00:15:41.077Z,4.83
2023-01-27T00:18:08.428Z,4.07
2023-01-27T00:20:54.175Z,3.63
2023-01-27T00:23:40.960Z,3.75
2023-01-27T00:26:09.893Z,3.35
2023-01-27T00:28:37.394Z,3.13
2023-01-27T00:31:04.824Z,3.45
2023-01-27T00:33:32.146Z,3.47
2023-01-27T00:36:08.573Z,3.05
2023-01-27T00:38:41.034Z,3.00
2023-01-27T00:41:20.757Z,2.50
2023-01-27T00:43:48.241Z,3.05
2023-01-27T00:46:15.559Z,2.10
2023-01-27T00:48:42.743Z,2.75
2023-01-27T00:51:10.077Z,2.53
2023-01-27T00:53:37.276Z,3.00
2023-01-27T00:56:04.598Z,2.92
2023-01-27T00:58:31.893Z,3.28
2023-01-27T01:00:59.686Z,2.90
2023-01-27T01:03:27.377Z,2.85
2023-01-27T01:05:54.547Z,2.90
2023-01-27T01:08:21.696Z,2.40
2023-01-27T01:10:48.851Z,2.50
2023-01-27T01:13:16.045Z,2.17
2023-01-27T01:15:43.422Z,2.13
2023-01-27T01:18:11.135Z,2.47
2023-01-27T01:20:38.762Z,1.60
2023-01-27T01:23:06.543Z,1.85
2023-01-27T01:25:34.071Z,1.77
2023-01-27T01:28:01.575Z,1.60
2023-01-27T01:30:28.893Z,1.73
2023-01-27T01:32:56.095Z,1.52
2023-01-27T01:35:24.621Z,1.90
2023-01-27T01:37:52.357Z,1.70
2023-01-27T01:40:19.519Z,1.70
2023-01-27T01:42:49.008Z,1.95
2023-01-27T01:45:36.301Z,1.67
2023-01-27T01:48:10.646Z,2.00
2023-01-27T01:50:38.306Z,2.13
2023-01-27T01:53:05.452Z,1.27
2023-01-27T01:55:32.676Z,1.60
2023-01-27T01:57:59.798Z,1.43
2023-01-27T02:00:27.085Z,1.30
2023-01-27T02:02:54.693Z,1.38
2023-01-27T02:05:24.478Z,1.40
2023-01-27T02:07:54.693Z,1.30
2023-01-27T02:10:21.845Z,1.30
2023-01-27T02:12:49.075Z,1.20
2023-01-27T02:15:16.271Z,1.40
2023-01-27T02:17:43.466Z,1.30
2023-01-27T02:20:14.241Z,1.45
2023-01-27T02:22:48.182Z,1.10
2023-01-27T02:25:24.511Z,1.40
2023-01-27T02:27:51.631Z,1.00
2023-01-27T02:30:18.831Z,0.90
2023-01-27T02:32:45.966Z,1.50
2023-01-27T02:35:14.925Z,1.27
2023-01-27T02:37:42.317Z,1.20
2023-01-27T02:40:10.170Z,1.43
2023-01-27T02:42:37.331Z,1.27
2023-01-27T02:45:04.837Z,1.13
2023-01-27T02:47:32.017Z,1.15
2023-01-27T02:49:59.258Z,1.00
2023-01-27T02:52:26.421Z,0.65
2023-01-27T02:54:53.623Z,1.05
2023-01-27T02:57:20.812Z,0.90
2023-01-27T02:59:47.931Z,1.17
2023-01-27T03:02:23.134Z,0.80
2023-01-27T03:04:50.367Z,0.90
2023-01-27T03:07:17.517Z,0.90
2023-01-27T03:09:44.744Z,1.03
2023-01-27T03:12:29.840Z,0.90
2023-01-27T03:15:15.861Z,0.80
2023-01-27T03:18:01.623Z,1.27
2023-01-27T03:20:28.865Z,0.90
2023-01-27T03:22:56.126Z,0.90
2023-01-27T03:25:23.307Z,1.00
2023-01-27T03:27:50.432Z,0.80
2023-01-27T03:30:17.622Z,1.07
2023-01-27T03:32:46.804Z,0.80
2023-01-27T03:35:16.619Z,1.00
2023-01-27T03:38:02.146Z,1.65
2023-01-27T03:40:47.803Z,1.05
2023-01-27T03:43:33.457Z,1.42
2023-01-27T03:46:19.133Z,1.50
2023-01-27T03:48:50.358Z,1.35
2023-01-27T03:51:17.840Z,1.58
2023-01-27T03:53:45.133Z,1.50
2023-01-27T03:56:12.624Z,1.20
2023-01-27T03:58:39.990Z,1.45
2023-01-27T04:01:09.048Z,1.13
2023-01-27T04:03:55.227Z,1.38
2023-01-27T04:06:42.122Z,1.30
2023-01-27T04:09:09.586Z,1.42
2023-01-27T04:11:55.307Z,1.77
2023-01-27T04:14:23.328Z,1.88
2023-01-27T04:16:51.200Z,1.50
2023-01-27T04:19:18.592Z,1.02
2023-01-27T04:21:45.789Z,1.40
2023-01-27T04:24:39.619Z,1.60
2023-01-27T04:27:07.629Z,1.17
2023-01-27T04:29:35.969Z,1.70
2023-01-27T04:32:04.405Z,1.73
2023-01-27T04:34:31.695Z,2.00
2023-01-27T04:36:59.115Z,1.60
2023-01-27T04:39:26.513Z,1.15
2023-01-27T04:41:53.827Z,1.40
2023-01-27T04:44:20.959Z,1.50
2023-01-27T04:46:48.154Z,1.40
2023-01-27T04:49:15.329Z,1.70
2023-01-27T04:51:42.584Z,1.57
2023-01-27T04:54:09.807Z,1.73
2023-01-27T04:56:37.615Z,1.30
2023-01-27T04:59:05.733Z,1.42
2023-01-27T05:01:32.929Z,1.08
2023-01-27T05:04:00.265Z,0.90
2023-01-27T05:06:27.439Z,1.35
2023-01-27T05:08:55.271Z,1.58
2023-01-27T05:11:22.499Z,1.63
2023-01-27T05:13:49.670Z,1.20
2023-01-27T05:16:17.834Z,0.90
2023-01-27T05:18:45.550Z,1.20
2023-01-27T05:21:13.828Z,1.40
2023-01-27T05:23:41.047Z,1.25
2023-01-27T05:26:08.269Z,1.27
2023-01-27T05:28:35.765Z,1.35
2023-01-27T05:31:05.979Z,0.98
2023-01-27T05:33:33.329Z,1.40
2023-01-27T05:36:01.255Z,0.93
2023-01-27T05:38:28.598Z,0.80
2023-01-27T05:41:01.909Z,1.27
2023-01-27T05:43:29.819Z,1.10
2023-01-27T05:46:13.363Z,0.80
2023-01-27T05:48:44.337Z,0.90
2023-01-27T05:51:15.216Z,0.80
2023-01-27T05:53:42.693Z,1.05
2023-01-27T05:56:10.649Z,1.13
2023-01-27T05:58:38.012Z,0.80
2023-01-27T06:01:15.479Z,0.93
2023-01-27T06:03:42.873Z,1.00
2023-01-27T06:06:10.279Z,0.77
2023-01-27T06:08:37.610Z,0.90
2023-01-27T06:11:04.789Z,0.90
2023-01-27T06:13:32.172Z,1.20
2023-01-27T06:15:59.447Z,0.80
2023-01-27T06:18:26.681Z,0.80
2023-01-27T06:20:53.852Z,1.08
2023-01-27T06:23:21.058Z,0.80
2023-01-27T06:25:49.397Z,0.70
2023-01-27T06:28:28.071Z,1.15
2023-01-27T06:30:56.417Z,1.02
2023-01-27T06:33:23.709Z,0.80
2023-01-27T06:35:50.917Z,1.90
2023-01-27T06:38:18.082Z,0.80
2023-01-27T06:40:45.209Z,0.77
2023-01-27T06:43:13.697Z,1.10
2023-01-27T06:45:41.006Z,0.70
2023-01-27T06:48:08.757Z,1.30
2023-01-27T06:50:36.777Z,0.93
2023-01-27T06:53:05.200Z,1.20
2023-01-27T06:55:32.467Z,0.90
2023-01-27T06:57:59.727Z,0.70
2023-01-27T07:00:26.961Z,1.17
2023-01-27T07:02:56.168Z,1.10
2023-01-27T07:05:23.366Z,0.70
2023-01-27T07:07:50.536Z,0.90
2023-01-27T07:10:17.890Z,0.60
2023-01-27T07:12:45.090Z,0.85
2023-01-27T07:15:12.268Z,0.88
2023-01-27T07:17:39.473Z,0.75
2023-01-27T07:20:07.098Z,1.15
2023-01-27T07:22:34.256Z,1.45
2023-01-27T07:25:01.886Z,1.30
2023-01-27T07:27:29.588Z,0.70
2023-01-27T07:29:57.372Z,0.65
2023-01-27T07:32:27.210Z,0.80
2023-01-27T07:34:55.255Z,1.40
2023-01-27T07:37:25.396Z,1.10
2023-01-27T07:39:52.534Z,0.65
2023-01-27T07:42:19.710Z,0.80
2023-01-27T07:44:46.900Z,0.90
2023-01-27T07:47:14.049Z,0.60
2023-01-27T07:49:41.226Z,0.82
2023-01-27T07:52:08.373Z,0.95
2023-01-27T07:54:35.523Z,1.10
2023-01-27T07:57:02.761Z,1.55
2023-01-27T07:59:29.944Z,0.70
2023-01-27T08:01:59.654Z,0.60
2023-01-27T08:04:27.187Z,0.88
2023-01-27T08:06:54.328Z,1.33
2023-01-27T08:09:21.487Z,1.00
2023-01-27T08:11:48.613Z,1.05
2023-01-27T08:14:15.760Z,0.57
2023-01-27T08:16:42.916Z,1.10
2023-01-27T08:19:10.175Z,0.93
2023-01-27T08:21:37.797Z,1.05
2023-01-27T08:24:05.070Z,0.90
2023-01-27T08:26:32.283Z,0.98
2023-01-27T08:28:59.466Z,0.63
2023-01-27T08:31:26.616Z,0.70
2023-01-27T08:33:54.129Z,0.50
2023-01-27T08:36:21.624Z,0.88
2023-01-27T08:38:51.499Z,1.00
2023-01-27T08:41:19.807Z,0.85
2023-01-27T08:43:46.988Z,0.93
2023-01-27T08:46:14.506Z,0.67
2023-01-27T08:48:42.096Z,0.60
2023-01-27T08:51:09.367Z,0.73
2023-01-27T08:53:39.299Z,0.80
2023-01-27T08:56:07.630Z,0.50
2023-01-27T08:58:35.113Z,0.90
2023-01-27T09:01:03.318Z,1.10
2023-01-27T09:03:31.089Z,0.82
2023-01-27T09:05:58.763Z,0.90
2023-01-27T09:08:26.028Z,0.68
2023-01-27T09:10:53.195Z,0.80
2023-01-27T09:13:22.451Z,0.80
2023-01-27T09:15:51.882Z,1.00
2023-01-27T09:18:19.122Z,0.90
2023-01-27T09:20:46.318Z,0.83
2023-01-27T09:23:13.482Z,0.73
2023-01-27T09:25:40.656Z,0.75
2023-01-27T09:28:16.811Z,0.77
2023-01-27T09:30:46.831Z,0.70
2023-01-27T09:33:17.132Z,0.65
2023-01-27T09:35:46.416Z,1.25
2023-01-27T09:38:14.349Z,0.60
2023-01-27T09:40:46.485Z,0.70
2023-01-27T09:43:32.498Z,0.60
2023-01-27T09:46:05.695Z,1.20
2023-01-27T09:48:51.739Z,0.60
2023-01-27T09:51:22.131Z,0.70
2023-01-27T09:54:02.612Z,0.88
2023-01-27T09:56:37.116Z,0.80
2023-01-27T09:59:07.292Z,0.45
2023-01-27T10:01:54.732Z,1.55
2023-01-27T10:04:28.437Z,0.60
2023-01-27T10:06:55.573Z,0.60
2023-01-27T10:09:36.250Z,0.70
2023-01-27T10:12:03.459Z,1.23
2023-01-27T10:14:38.652Z,1.00
2023-01-27T10:17:12.063Z,0.75
2023-01-27T10:19:40.305Z,0.80
2023-01-27T10:22:07.447Z,1.00
2023-01-27T10:24:57.183Z,1.00
2023-01-27T10:27:24.839Z,0.70
2023-01-27T10:29:59.314Z,1.00
2023-01-27T10:32:28.399Z,0.70
2023-01-27T10:34:55.629Z,0.60
2023-01-27T10:37:29.298Z,0.60
2023-01-27T10:40:16.728Z,0.47
2023-01-27T10:42:46.954Z,0.80
2023-01-27T10:45:17.011Z,0.75
2023-01-27T10:48:02.889Z,0.70
2023-01-27T10:50:40.405Z,0.75
2023-01-27T10:53:26.427Z,0.65
2023-01-27T10:55:56.026Z,0.50
2023-01-27T10:58:55.787Z,0.80
2023-01-27T11:01:43.376Z,0.63
2023-01-27T11:04:13.782Z,0.60
2023-01-27T11:06:41.311Z,0.50
2023-01-27T11:09:14.681Z,0.70
2023-01-27T11:11:45.026Z,0.70
2023-01-27T11:14:15.503Z,0.90
2023-01-27T11:16:44.108Z,0.47
2023-01-27T11:19:12.790Z,0.50
2023-01-27T11:21:39.938Z,0.60
2023-01-27T11:24:13.233Z,0.50
2023-01-27T11:26:41.054Z,0.57
2023-01-27T11:29:25.999Z,0.50
2023-01-27T11:32:11.265Z,0.55
2023-01-27T11:34:40.641Z,0.77
2023-01-27T11:37:18.341Z,0.60
2023-01-27T11:39:45.513Z,0.60
2023-01-27T11:42:12.666Z,1.00
2023-01-27T11:44:40.941Z,0.57
2023-01-27T11:47:08.252Z,0.52
2023-01-27T11:49:36.269Z,0.50
2023-01-27T11:52:13.427Z,0.75
2023-01-27T11:54:42.149Z,0.30
2023-01-27T11:57:15.353Z,0.95
2023-01-27T11:59:42.533Z,0.47
2023-01-27T12:02:09.656Z,0.63
2023-01-27T12:04:39.749Z,1.53
2023-01-27T12:07:08.000Z,5.30
2023-01-27T12:09:36.233Z,8.23
2023-01-27T12:12:21.123Z,5.57
2023-01-27T12:14:55.509Z,5.43
2023-01-27T12:17:30.857Z,1.98
2023-01-27T12:19:58.991Z,5.25
2023-01-27T12:22:27.785Z,2.92
2023-01-27T12:24:56.317Z,6.30
2023-01-27T12:27:30.323Z,8.85
2023-01-27T12:30:07.221Z,5.43
2023-01-27T12:32:45.398Z,3.65
2023-01-27T12:35:41.889Z,4.80
2023-01-27T12:38:15.994Z,13.27
2023-01-27T12:40:44.325Z,2.40
2023-01-27T12:43:15.407Z,0.80
2023-01-27T12:45:43.405Z,0.90
2023-01-27T12:48:10.583Z,1.02
2023-01-27T12:50:38.364Z,2.25
2023-01-27T12:53:18.742Z,4.60
2023-01-27T12:55:48.923Z,7.83
2023-01-27T12:58:28.731Z,1.67
2023-01-27T13:00:57.595Z,0.40
2023-01-27T13:03:24.830Z,0.60
2023-01-27T13:05:55.582Z,2.80
2023-01-27T13:08:22.800Z,1.70
2023-01-27T13:10:50.956Z,0.40
2023-01-27T13:13:19.496Z,0.82
2023-01-27T13:16:04.166Z,0.80
2023-01-27T13:18:35.731Z,1.65
2023-01-27T13:21:16.686Z,3.77
2023-01-27T13:23:43.851Z,1.40
2023-01-27T13:26:11.535Z,3.30
2023-01-27T13:28:52.104Z,2.73
2023-01-27T13:31:28.971Z,4.10
2023-01-27T13:33:57.395Z,2.13
2023-01-27T13:36:24.571Z,1.85
2023-01-27T13:39:02.124Z,1.08
2023-01-27T13:41:32.218Z,2.42
2023-01-27T13:44:02.283Z,6.90
2023-01-27T13:46:30.660Z,1.15
2023-01-27T13:49:04.263Z,0.80
2023-01-27T13:51:31.720Z,2.42
2023-01-27T13:54:02.722Z,5.70
2023-01-27T13:56:50.169Z,6.82
2023-01-27T13:59:35.718Z,2.50
2023-01-27T14:02:02.870Z,2.63
2023-01-27T14:04:39.167Z,2.47
2023-01-27T14:07:18.934Z,6.82
2023-01-27T14:09:49.259Z,1.17
2023-01-27T14:12:16.445Z,3.03
2023-01-27T14:14:58.056Z,0.60
2023-01-27T14:17:28.871Z,2.55
2023-01-27T14:19:55.995Z,3.97
2023-01-27T14:22:23.251Z,0.88
2023-01-27T14:24:54.120Z,1.58
2023-01-27T14:27:28.288Z,1.40
2023-01-27T14:30:14.151Z,1.97
2023-01-27T14:32:41.491Z,1.15
2023-01-27T14:35:20.920Z,1.00
2023-01-27T14:37:57.082Z,6.65
2023-01-27T14:40:31.413Z,1.90
2023-01-27T14:43:04.797Z,1.13
2023-01-27T14:45:41.636Z,1.40
2023-01-27T14:48:21.190Z,0.98
2023-01-27T14:50:57.303Z,0.98
2023-01-27T14:53:40.426Z,3.70
2023-01-27T14:56:10.571Z,1.27
2023-01-27T14:58:40.571Z,4.22
2023-01-27T15:01:10.557Z,1.20
2023-01-27T15:03:40.888Z,0.90
2023-01-27T15:06:17.329Z,3.20
2023-01-27T15:08:48.561Z,9.18
2023-01-27T15:11:15.698Z,1.67
2023-01-27T15:13:42.869Z,1.73
2023-01-27T15:16:21.078Z,2.22
2023-01-27T15:19:00.567Z,2.00
2023-01-27T15:21:42.817Z,1.00
2023-01-27T15:24:10.113Z,3.67
2023-01-27T15:26:37.313Z,3.95
2023-01-27T15:29:04.470Z,1.95
2023-01-27T15:31:31.839Z,1.13
2023-01-27T15:34:05.475Z,1.65
2023-01-27T15:36:33.731Z,1.40
2023-01-27T15:39:01.655Z,0.80
2023-01-27T15:41:28.912Z,0.90
2023-01-27T15:44:16.510Z,1.27
2023-01-27T15:46:53.507Z,1.77
2023-01-27T15:49:25.148Z,1.50
2023-01-27T15:51:52.953Z,1.50
2023-01-27T15:54:22.943Z,2.10
2023-01-27T15:56:52.180Z,4.40
2023-01-27T15:59:26.550Z,5.87
2023-01-27T16:02:04.204Z,6.40
2023-01-27T16:04:33.132Z,7.45
2023-01-27T16:07:04.167Z,6.32
2023-01-27T16:09:41.266Z,5.80
2023-01-27T16:12:23.869Z,5.13
2023-01-27T16:14:51.377Z,5.35
2023-01-27T16:17:25.414Z,4.15
2023-01-27T16:19:57.141Z,6.85
2023-01-27T16:22:24.911Z,7.45
2023-01-27T16:24:56.213Z,6.28
2023-01-27T16:27:26.594Z,6.18
2023-01-27T16:29:58.078Z,3.13
2023-01-27T16:32:26.893Z,1.63
2023-01-27T16:35:00.655Z,1.83
2023-01-27T16:37:29.396Z,3.60
2023-01-27T16:40:14.503Z,4.20
2023-01-27T16:42:45.911Z,3.67
2023-01-27T16:45:17.759Z,2.38
2023-01-27T16:47:47.225Z,1.58
2023-01-27T16:50:33.054Z,1.00
2023-01-27T16:53:00.309Z,0.57
2023-01-27T16:55:27.513Z,0.80
2023-01-27T16:57:54.953Z,1.23
2023-01-27T17:00:32.918Z,1.20
2023-01-27T17:03:01.706Z,1.10
2023-01-27T17:05:28.929Z,0.60
2023-01-27T17:08:02.968Z,0.63
2023-01-27T17:10:34.785Z,0.30
2023-01-27T17:13:02.538Z,0.50
2023-01-27T17:15:30.266Z,0.47
2023-01-27T17:17:57.448Z,0.50
2023-01-27T17:20:26.939Z,0.60
2023-01-27T17:22:54.559Z,0.52
2023-01-27T17:25:31.645Z,0.70
2023-01-27T17:28:02.405Z,0.57
2023-01-27T17:30:37.015Z,0.70
2023-01-27T17:33:04.542Z,1.33
2023-01-27T17:35:33.386Z,0.60
2023-01-27T17:38:15.894Z,0.52
2023-01-27T17:40:46.123Z,0.73
2023-01-27T17:43:39.783Z,0.52
2023-01-27T17:46:06.999Z,1.30
2023-01-27T17:48:34.982Z,0.53
2023-01-27T17:51:02.264Z,6.35
2023-01-27T17:53:29.407Z,1.42
2023-01-27T17:55:56.877Z,1.08
2023-01-27T17:58:24.819Z,1.85
2023-01-27T18:00:52.028Z,4.90
2023-01-27T18:03:20.144Z,2.67
2023-01-27T18:05:47.308Z,4.50
2023-01-27T18:08:14.506Z,4.85
2023-01-27T18:10:44.817Z,2.80
2023-01-27T18:13:12.005Z,4.20
2023-01-27T18:15:42.913Z,1.10
2023-01-27T18:18:20.700Z,0.68
2023-01-27T18:20:53.837Z,5.10
2023-01-27T18:23:22.277Z,2.30
2023-01-27T18:25:51.372Z,1.13
2023-01-27T18:28:18.838Z,1.17
2023-01-27T18:30:52.331Z,0.80
2023-01-27T18:33:20.152Z,0.57
2023-01-27T18:35:56.623Z,0.75
2023-01-27T18:38:27.466Z,2.60
2023-01-27T18:40:55.728Z,3.22
2023-01-27T18:43:23.263Z,1.40
2023-01-27T18:45:50.600Z,1.15
2023-01-27T18:48:18.632Z,0.63
2023-01-27T18:50:46.724Z,0.53
2023-01-27T18:53:14.305Z,0.50
2023-01-27T18:55:41.457Z,1.00
2023-01-27T18:58:08.639Z,1.00
2023-01-27T19:00:40.212Z,1.00
2023-01-27T19:03:07.932Z,0.75
2023-01-27T19:05:35.740Z,0.43
2023-01-27T19:08:02.972Z,0.90
2023-01-27T19:10:30.889Z,0.90
2023-01-27T19:12:59.113Z,1.80
2023-01-27T19:15:26.802Z,2.50
2023-01-27T19:17:54.463Z,1.50
2023-01-27T19:20:22.865Z,2.17
2023-01-27T19:22:50.290Z,1.13
2023-01-27T19:25:17.567Z,3.00
2023-01-27T19:27:48.693Z,6.13
2023-01-27T19:30:29.876Z,4.50
2023-01-27T19:32:57.263Z,1.95
2023-01-27T19:35:24.832Z,1.20
2023-01-27T19:37:52.160Z,0.90
2023-01-27T19:40:29.105Z,1.20
2023-01-27T19:42:56.251Z,0.90
2023-01-27T19:45:23.553Z,0.70
2023-01-27T19:47:50.826Z,0.80
2023-01-27T19:50:28.245Z,0.90
2023-01-27T19:52:55.476Z,0.60
2023-01-27T19:55:22.675Z,5.22
2023-01-27T19:57:50.241Z,3.70
2023-01-27T20:00:22.122Z,1.60
2023-01-27T20:02:49.430Z,0.95
2023-01-27T20:05:16.745Z,1.02
2023-01-27T20:07:44.556Z,1.00
2023-01-27T20:10:16.665Z,0.60
2023-01-27T20:12:44.400Z,1.77
2023-01-27T20:15:18.141Z,1.38
2023-01-27T20:17:45.494Z,0.70
2023-01-27T20:20:12.930Z,0.50
2023-01-27T20:22:40.179Z,0.40
2023-01-27T20:25:07.728Z,0.55
2023-01-27T20:27:34.893Z,0.50
2023-01-27T20:30:02.596Z,0.50
2023-01-27T20:32:30.875Z,0.70
2023-01-27T20:35:01.084Z,0.60
2023-01-27T20:37:28.377Z,2.83
2023-01-27T20:39:55.593Z,1.47
2023-01-27T20:42:22.871Z,0.60
2023-01-27T20:44:50.155Z,0.90
2023-01-27T20:47:17.363Z,0.95
2023-01-27T20:49:44.598Z,1.33
2023-01-27T20:52:11.744Z,0.80
2023-01-27T20:54:38.939Z,0.70
2023-01-27T20:57:06.136Z,0.88
2023-01-27T20:59:33.268Z,0.70
2023-01-27T21:02:00.503Z,0.40
2023-01-27T21:04:27.824Z,0.57
2023-01-27T21:06:55.047Z,0.70
2023-01-27T21:09:22.205Z,0.70
2023-01-27T21:11:49.383Z,0.70
2023-01-27T21:14:16.591Z,0.55
2023-01-27T21:16:43.787Z,0.90
2023-01-27T21:19:12.189Z,0.55
2023-01-27T21:21:39.470Z,0.43
2023-01-27T21:24:08.494Z,0.52
2023-01-27T21:26:38.880Z,0.50
2023-01-27T21:29:06.581Z,0.65
2023-01-27T21:31:33.946Z,0.77
2023-01-27T21:34:01.501Z,0.70
2023-01-27T21:36:28.837Z,0.60
2023-01-27T21:38:56.962Z,0.55
2023-01-27T21:41:42.992Z,0.60
2023-01-27T21:44:41.370Z,0.45
2023-01-27T21:47:09.255Z,0.80
2023-01-27T21:49:55.923Z,0.50
2023-01-27T21:52:23.555Z,0.77
2023-01-27T21:54:50.851Z,0.60
2023-01-27T21:57:18.211Z,0.70
2023-01-27T21:59:45.523Z,0.70
2023-01-27T22:02:13.507Z,0.82
2023-01-27T22:04:44.130Z,1.23
2023-01-27T22:07:15.729Z,1.65
2023-01-27T22:09:43.345Z,1.20
2023-01-27T22:12:15.783Z,1.00
2023-01-27T22:14:47.224Z,1.52
2023-01-27T22:17:14.728Z,2.20
2023-01-27T22:19:42.500Z,2.08
2023-01-27T22:22:10.902Z,1.80
2023-01-27T22:24:40.831Z,2.10
2023-01-27T22:27:10.922Z,2.20
2023-01-27T22:29:38.755Z,2.83
2023-01-27T22:32:08.179Z,1.45
2023-01-27T22:34:35.676Z,1.55
2023-01-27T22:37:07.970Z,1.10
2023-01-27T22:39:35.480Z,1.48
2023-01-27T22:42:02.722Z,1.50
2023-01-27T22:44:29.868Z,2.40
2023-01-27T22:46:58.681Z,1.60
2023-01-27T22:49:26.240Z,1.10
2023-01-27T22:51:53.528Z,0.73
2023-01-27T22:54:21.036Z,1.27
2023-01-27T22:56:48.826Z,1.40
2023-01-27T22:59:16.163Z,1.30
2023-01-27T23:01:43.415Z,1.20
2023-01-27T23:04:14.220Z,0.80
2023-01-27T23:06:41.454Z,0.80
2023-01-27T23:09:08.652Z,0.90
2023-01-27T23:11:35.822Z,0.60
2023-01-27T23:14:03.022Z,0.47
2023-01-27T23:16:30.292Z,0.70
2023-01-27T23:18:57.486Z,0.60
2023-01-27T23:21:24.623Z,0.60
2023-01-27T23:23:51.828Z,1.00
2023-01-27T23:26:19.077Z,0.70
2023-01-27T23:28:46.239Z,0.50
2023-01-27T23:31:13.759Z,0.50
2023-01-27T23:33:41.602Z,0.80
2023-01-27T23:36:09.199Z,0.90
2023-01-27T23:38:36.605Z,0.70
2023-01-27T23:41:04.260Z,0.70
2023-01-27T23:43:31.491Z,0.70
2023-01-27T23:45:58.766Z,0.70
2023-01-27T23:48:26.122Z,0.70
2023-01-27T23:50:53.370Z,0.98
2023-01-27T23:53:20.688Z,0.90
2023-01-27T23:55:57.778Z,1.23
2023-01-27T23:58:25.093Z,0.82
